createdAt,value
2018-11-20T00:01:28.537Z,5.67
2018-11-20T00:04:35.220Z,5.67
2018-11-20T00:07:57.104Z,5.70
2018-11-20T00:11:03.020Z,5.63
2018-11-20T00:14:08.461Z,6.67
2018-11-20T00:17:19.325Z,6.13
2018-11-20T00:20:18.033Z,6.83
2018-11-20T00:23:25.021Z,6.43
2018-11-20T00:26:26.889Z,6.40
2018-11-20T00:29:24.955Z,6.53
2018-11-20T00:32:40.424Z,6.60
2018-11-20T00:35:55.047Z,6.13
2018-11-20T00:38:53.811Z,5.73
2018-11-20T00:41:57.791Z,5.70
2018-11-20T00:45:07.669Z,6.03
2018-11-20T00:48:13.227Z,5.63
2018-11-20T00:51:20.146Z,6.07
2018-11-20T00:54:35.477Z,5.67
2018-11-20T00:57:30.990Z,5.80
2018-11-20T01:00:36.816Z,6.57
2018-11-20T01:03:39.568Z,5.90
2018-11-20T01:06:45.208Z,6.17
2018-11-20T01:09:51.198Z,6.60
2018-11-20T01:13:04.301Z,5.90
2018-11-20T01:16:10.143Z,6.33
2018-11-20T01:19:26.201Z,5.30
2018-11-20T01:22:31.772Z,5.33
2018-11-20T01:25:43.877Z,6.47
2018-11-20T01:28:56.802Z,6.30
2018-11-20T01:32:19.086Z,6.30
2018-11-20T01:35:26.085Z,6.73
2018-11-20T01:38:21.438Z,5.97
2018-11-20T01:41:31.843Z,6.90
2018-11-20T01:44:50.542Z,6.97
2018-11-20T01:47:55.757Z,6.43
2018-11-20T01:51:01.029Z,7.43
2018-11-20T01:54:08.033Z,6.57
2018-11-20T01:57:04.989Z,6.57
2018-11-20T02:00:10.400Z,7.07
2018-11-20T02:03:21.913Z,7.20
2018-11-20T02:06:20.583Z,6.73
2018-11-20T02:09:34.011Z,7.63
2018-11-20T02:12:43.572Z,6.70
2018-11-20T02:15:51.089Z,6.77
2018-11-20T02:18:56.475Z,6.73
2018-11-20T02:22:03.900Z,7.27
2018-11-20T02:25:03.644Z,6.87
2018-11-20T02:28:09.049Z,7.37
2018-11-20T02:31:14.727Z,7.17
2018-11-20T02:34:31.677Z,6.97
2018-11-20T02:37:41.418Z,7.53
2018-11-20T02:40:47.233Z,7.33
2018-11-20T02:43:52.874Z,7.10
2018-11-20T02:47:02.956Z,7.77
2018-11-20T02:50:27.925Z,6.87
2018-11-20T02:53:34.834Z,7.37
2018-11-20T02:56:44.808Z,7.03
2018-11-20T02:59:54.567Z,7.07
2018-11-20T03:03:09.969Z,7.93
2018-11-20T03:06:22.045Z,6.87
2018-11-20T03:09:35.107Z,7.53
2018-11-20T03:12:48.706Z,7.77
2018-11-20T03:15:54.583Z,7.60
2018-11-20T03:19:14.014Z,8.10
2018-11-20T03:22:15.006Z,8.50
2018-11-20T03:25:28.303Z,7.73
2018-11-20T03:28:38.069Z,7.40
2018-11-20T03:31:48.036Z,7.83
2018-11-20T03:34:55.822Z,8.53
2018-11-20T03:38:05.475Z,7.47
2018-11-20T03:41:17.966Z,7.73
2018-11-20T03:44:17.796Z,8.77
2018-11-20T03:47:24.883Z,8.17
2018-11-20T03:50:41.212Z,8.37
2018-11-20T03:53:49.092Z,8.00
2018-11-20T03:57:01.795Z,8.20
2018-11-20T04:00:03.685Z,9.60
2018-11-20T04:03:19.902Z,9.00
2018-11-20T04:06:16.911Z,8.73
2018-11-20T04:09:23.496Z,8.07
2018-11-20T04:12:28.106Z,9.37
2018-11-20T04:15:33.968Z,10.13
2018-11-20T04:18:36.764Z,9.57
2018-11-20T04:21:39.847Z,9.67
2018-11-20T04:24:59.014Z,9.37
2018-11-20T04:28:04.266Z,9.23
2018-11-20T04:31:52.085Z,8.67
2018-11-20T04:34:58.678Z,10.13
2018-11-20T04:38:11.275Z,9.13
2018-11-20T04:41:17.917Z,9.47
2018-11-20T04:44:30.552Z,8.33
2018-11-20T04:47:40.442Z,9.53
2018-11-20T04:50:41.803Z,9.93
2018-11-20T04:53:46.107Z,10.00
2018-11-20T04:56:54.741Z,9.33
2018-11-20T04:59:52.488Z,9.37
2018-11-20T05:02:54.583Z,10.00
2018-11-20T05:06:00.400Z,9.77
2018-11-20T05:09:13.242Z,9.20
2018-11-20T05:12:22.800Z,9.17
2018-11-20T05:15:28.475Z,12.47
2018-11-20T05:18:36.168Z,10.03
2018-11-20T05:21:51.885Z,9.13
2018-11-20T05:24:58.758Z,7.93
2018-11-20T05:28:11.471Z,8.87
2018-11-20T05:31:24.758Z,7.60
2018-11-20T05:34:24.693Z,9.17
2018-11-20T05:37:40.646Z,9.90
2018-11-20T05:40:46.705Z,8.53
2018-11-20T05:44:08.379Z,8.97
2018-11-20T05:47:16.984Z,8.43
2018-11-20T05:50:23.317Z,8.70
2018-11-20T05:53:32.801Z,9.03
2018-11-20T05:56:37.643Z,9.30
2018-11-20T05:59:43.166Z,9.13
2018-11-20T06:02:59.283Z,8.97
2018-11-20T06:06:11.914Z,9.37
2018-11-20T06:09:16.869Z,9.90
2018-11-20T06:12:36.329Z,12.15
2018-11-20T06:15:38.495Z,10.17
2018-11-20T06:18:40.020Z,8.77
2018-11-20T06:21:45.287Z,8.47
2018-11-20T06:24:43.674Z,9.63
2018-11-20T06:27:45.826Z,8.40
2018-11-20T06:30:58.700Z,9.10
2018-11-20T06:34:08.319Z,9.57
2018-11-20T06:37:27.132Z,9.13
2018-11-20T06:40:36.691Z,9.00
2018-11-20T06:43:52.485Z,8.83
2018-11-20T06:46:57.973Z,8.57
2018-11-20T06:49:55.913Z,8.60
2018-11-20T06:52:55.807Z,9.50
2018-11-20T06:56:00.485Z,9.07
2018-11-20T06:59:10.305Z,9.60
2018-11-20T07:02:15.668Z,8.57
2018-11-20T07:05:14.139Z,9.23
2018-11-20T07:08:24.232Z,9.67
2018-11-20T07:11:29.338Z,10.77
2018-11-20T07:14:37.111Z,9.70
2018-11-20T07:17:44.870Z,9.37
2018-11-20T07:20:48.153Z,10.23
2018-11-20T07:23:47.826Z,9.77
2018-11-20T07:26:53.136Z,9.00
2018-11-20T07:29:50.599Z,10.20
2018-11-20T07:32:57.564Z,9.63
2018-11-20T07:36:03.061Z,10.33
2018-11-20T07:39:08.994Z,10.00
2018-11-20T07:42:07.975Z,10.00
2018-11-20T07:45:10.229Z,11.07
2018-11-20T07:48:26.761Z,11.00
2018-11-20T07:51:39.394Z,10.20
2018-11-20T07:54:44.395Z,11.13
2018-11-20T07:57:43.405Z,10.07
2018-11-20T08:00:56.505Z,10.83
2018-11-20T08:04:11.919Z,11.87
2018-11-20T08:07:15.388Z,12.33
2018-11-20T08:10:20.618Z,12.33
2018-11-20T08:13:19.029Z,12.40
2018-11-20T08:16:16.782Z,12.57
2018-11-20T08:19:23.986Z,12.10
2018-11-20T08:22:39.831Z,11.77
2018-11-20T08:25:46.051Z,11.20
2018-11-20T08:28:55.528Z,10.97
2018-11-20T08:32:01.242Z,12.30
2018-11-20T08:35:07.302Z,11.17
2018-11-20T08:38:15.494Z,11.37
2018-11-20T08:41:24.036Z,11.20
2018-11-20T08:44:33.987Z,10.83
2018-11-20T08:47:41.020Z,11.33
2018-11-20T08:50:39.224Z,10.37
2018-11-20T08:56:42.162Z,11.17
2018-11-20T08:59:47.689Z,9.83
2018-11-20T09:02:45.640Z,9.83
2018-11-20T09:05:52.774Z,10.50
2018-11-20T09:08:49.287Z,11.40
2018-11-20T09:11:53.941Z,10.60
2018-11-20T09:15:13.739Z,10.63
2018-11-20T09:18:23.957Z,10.60
2018-11-20T09:21:29.615Z,10.60
2018-11-20T09:24:32.710Z,10.57
2018-11-20T09:27:38.274Z,9.83
2018-11-20T09:31:00.472Z,9.43
2018-11-20T09:34:21.021Z,10.77
2018-11-20T09:37:27.916Z,10.90
2018-11-20T09:41:09.216Z,10.33
2018-11-20T09:44:21.786Z,9.43
2018-11-20T09:47:40.492Z,10.23
2018-11-20T09:50:43.227Z,9.10
2018-11-20T09:53:44.806Z,10.47
2018-11-20T09:57:02.130Z,9.90
2018-11-20T10:00:12.079Z,10.10
2018-11-20T10:03:15.176Z,10.63
2018-11-20T10:06:31.211Z,9.73
2018-11-20T10:09:29.248Z,9.73
2018-11-20T10:12:38.834Z,9.80
2018-11-20T10:15:46.074Z,9.80
2018-11-20T10:18:53.363Z,9.93
2018-11-20T10:22:08.938Z,9.47
2018-11-20T10:25:11.035Z,9.07
2018-11-20T10:28:16.979Z,10.17
2018-11-20T10:31:35.770Z,10.23
2018-11-20T10:34:45.386Z,9.57
2018-11-20T10:37:58.711Z,8.77
2018-11-20T10:41:10.006Z,9.43
2018-11-20T10:44:35.344Z,9.43
2018-11-20T10:47:39.825Z,8.90
2018-11-20T10:50:45.549Z,9.23
2018-11-20T10:53:50.929Z,9.10
2018-11-20T10:57:11.149Z,9.17
2018-11-20T11:00:17.046Z,8.43
2018-11-20T11:03:22.417Z,9.83
2018-11-20T11:06:27.664Z,7.97
2018-11-20T11:09:33.120Z,8.87
2018-11-20T11:12:43.146Z,9.20
2018-11-20T11:15:48.344Z,9.60
2018-11-20T11:18:51.516Z,9.20
2018-11-20T11:21:58.533Z,10.10
2018-11-20T11:25:01.728Z,9.33
2018-11-20T11:28:16.787Z,9.50
2018-11-20T11:31:39.134Z,9.27
2018-11-20T11:34:44.414Z,9.43
2018-11-20T11:37:55.156Z,9.30
2018-11-20T11:41:01.058Z,9.57
2018-11-20T11:44:15.027Z,8.33
2018-11-20T11:47:16.199Z,9.43
2018-11-20T11:50:21.608Z,9.83
2018-11-20T11:53:29.352Z,8.73
2018-11-20T11:56:54.598Z,9.20
2018-11-20T12:00:00.057Z,9.37
2018-11-20T12:05:51.787Z,9.37
2018-11-20T12:08:56.762Z,8.83
2018-11-20T12:12:22.196Z,8.73
2018-11-20T12:15:31.466Z,8.70
2018-11-20T12:18:37.080Z,7.90
2018-11-20T12:21:34.540Z,8.77
2018-11-20T12:24:37.762Z,9.00
2018-11-20T12:27:50.425Z,9.50
2018-11-20T12:30:55.611Z,9.30
2018-11-20T12:34:01.075Z,9.50
2018-11-20T12:37:18.081Z,9.20
2018-11-20T12:40:34.124Z,9.13
2018-11-20T12:43:48.218Z,9.37
2018-11-20T12:46:58.079Z,8.37
2018-11-20T12:50:08.591Z,9.17
2018-11-20T12:53:14.630Z,9.10
2018-11-20T12:56:24.353Z,9.27
2018-11-20T12:59:30.021Z,9.70
2018-11-20T13:02:46.507Z,9.47
2018-11-20T13:05:44.886Z,8.87
2018-11-20T13:09:03.683Z,9.27
2018-11-20T13:12:10.120Z,9.70
2018-11-20T13:15:17.847Z,9.07
2018-11-20T13:18:16.392Z,8.77
2018-11-20T13:21:28.718Z,9.17
2018-11-20T13:24:27.286Z,9.93
2018-11-20T13:27:32.838Z,8.57
2018-11-20T13:30:42.533Z,8.80
2018-11-20T13:33:49.722Z,10.00
2018-11-20T13:37:00.168Z,8.27
2018-11-20T13:40:06.923Z,8.37
2018-11-20T13:43:17.097Z,9.70
2018-11-20T13:46:22.570Z,9.03
2018-11-20T13:49:28.020Z,8.80
2018-11-20T13:52:28.523Z,9.40
2018-11-20T13:55:34.152Z,8.87
2018-11-20T13:58:40.019Z,9.43
2018-11-20T14:02:02.265Z,9.30
2018-11-20T14:05:12.515Z,9.23
2018-11-20T14:08:08.767Z,8.97
2018-11-20T14:11:11.566Z,8.23
2018-11-20T14:14:21.487Z,9.67
2018-11-20T14:17:46.616Z,9.80
2018-11-20T14:20:53.565Z,8.30
2018-11-20T14:23:59.720Z,9.07
2018-11-20T14:27:01.533Z,8.80
2018-11-20T14:29:56.715Z,8.47
2018-11-20T14:33:00.337Z,8.80
2018-11-20T14:35:57.276Z,9.77
2018-11-20T14:39:02.614Z,8.97
2018-11-20T14:42:15.434Z,9.47
2018-11-20T14:45:20.872Z,9.60
2018-11-20T14:48:25.641Z,10.33
2018-11-20T14:51:31.768Z,9.00
2018-11-20T14:54:29.572Z,9.43
2018-11-20T14:57:37.564Z,9.80
2018-11-20T15:00:50.037Z,9.43
2018-11-20T15:04:12.028Z,10.20
2018-11-20T15:07:28.505Z,10.03
2018-11-20T15:10:34.186Z,10.73
2018-11-20T15:13:44.175Z,9.73
2018-11-20T15:16:42.490Z,10.13
2018-11-20T15:19:47.125Z,10.67
2018-11-20T15:22:53.798Z,9.87
2018-11-20T15:26:18.622Z,10.40
2018-11-20T15:29:24.349Z,9.37
2018-11-20T15:32:40.153Z,10.40
2018-11-20T15:35:53.591Z,9.93
2018-11-20T15:38:57.084Z,9.53
2018-11-20T15:42:09.869Z,10.00
2018-11-20T15:45:22.968Z,10.97
2018-11-20T15:48:28.252Z,10.50
2018-11-20T15:51:33.769Z,10.73
2018-11-20T15:54:39.143Z,11.87
2018-11-20T15:57:45.486Z,10.47
2018-11-20T16:01:18.364Z,11.70
2018-11-20T16:04:17.764Z,10.73
2018-11-20T16:07:14.454Z,11.70
2018-11-20T16:10:21.786Z,11.60
2018-11-20T16:13:41.258Z,11.40
2018-11-20T16:16:46.654Z,11.67
2018-11-20T16:19:47.461Z,12.20
2018-11-20T16:22:53.291Z,11.90
2018-11-20T16:26:06.829Z,11.67
2018-11-20T16:29:12.311Z,12.80
2018-11-20T16:32:29.706Z,12.43
2018-11-20T16:35:39.583Z,12.30
2018-11-20T16:38:46.456Z,11.50
2018-11-20T16:41:47.588Z,13.00
2018-11-20T16:45:33.706Z,12.97
2018-11-20T16:48:34.224Z,12.63
2018-11-20T16:51:42.901Z,12.80
2018-11-20T16:54:41.364Z,13.87
2018-11-20T16:57:55.588Z,12.83
2018-11-20T17:00:53.581Z,13.80
2018-11-20T17:04:08.536Z,12.43
2018-11-20T17:07:17.282Z,13.10
2018-11-20T17:10:35.514Z,12.17
2018-11-20T17:13:40.366Z,12.93
2018-11-20T17:16:44.748Z,18.73
2018-11-20T17:19:53.256Z,15.03
2018-11-20T17:23:02.749Z,13.70
2018-11-20T17:26:07.237Z,13.50
2018-11-20T17:29:28.107Z,12.80
2018-11-20T17:32:36.290Z,12.77
2018-11-20T17:35:42.505Z,12.77
2018-11-20T17:38:51.222Z,12.20
2018-11-20T17:41:57.077Z,12.20
2018-11-20T17:45:01.432Z,11.73
2018-11-20T17:48:10.080Z,13.20
2018-11-20T17:51:14.757Z,12.20
2018-11-20T17:54:07.853Z,12.33
2018-11-20T17:57:22.727Z,12.13
2018-11-20T18:00:29.555Z,11.17
2018-11-20T18:03:35.367Z,12.03
2018-11-20T18:06:40.053Z,12.17
2018-11-20T18:09:44.436Z,11.13
2018-11-20T18:13:08.815Z,11.60
2018-11-20T18:16:13.367Z,11.40
2018-11-20T18:19:27.921Z,12.07
2018-11-20T18:22:24.225Z,12.07
2018-11-20T18:25:45.176Z,11.70
2018-11-20T18:28:49.816Z,10.80
2018-11-20T18:32:06.365Z,10.80
2018-11-20T18:35:11.026Z,10.40
2018-11-20T18:38:19.468Z,11.13
2018-11-20T18:41:21.487Z,11.00
2018-11-20T18:44:18.457Z,10.33
2018-11-20T18:47:24.668Z,10.10
2018-11-20T18:50:24.889Z,11.00
2018-11-20T18:53:31.043Z,10.60
2018-11-20T18:56:29.704Z,9.43
2018-11-20T18:59:25.622Z,10.93
2018-11-20T19:02:27.722Z,10.27
2018-11-20T19:05:44.920Z,9.47
2018-11-20T19:09:01.032Z,10.77
2018-11-20T19:12:03.369Z,10.00
2018-11-20T19:15:11.294Z,10.27
2018-11-20T19:18:15.830Z,10.17
2018-11-20T19:21:27.633Z,9.60
2018-11-20T19:24:33.606Z,10.47
2018-11-20T19:27:36.035Z,10.70
2018-11-20T19:30:36.697Z,10.77
2018-11-20T19:33:38.018Z,11.93
2018-11-20T19:36:43.592Z,10.20
2018-11-20T19:39:50.608Z,11.47
2018-11-20T19:42:44.017Z,10.10
2018-11-20T19:45:48.448Z,10.63
2018-11-20T19:48:50.099Z,11.43
2018-11-20T19:52:01.027Z,10.60
2018-11-20T19:55:03.680Z,11.53
2018-11-20T20:01:14.513Z,11.53
2018-11-20T20:04:18.920Z,11.40
2018-11-20T20:07:31.924Z,11.97
2018-11-20T20:10:36.470Z,10.57
2018-11-20T20:13:51.050Z,10.60
2018-11-20T20:16:52.876Z,11.70
2018-11-20T20:20:06.008Z,16.60
2018-11-20T20:23:12.336Z,12.60
2018-11-20T20:26:10.430Z,12.53
2018-11-20T20:29:16.549Z,12.63
2018-11-20T20:32:25.340Z,12.70
2018-11-20T20:35:49.701Z,12.70
2018-11-20T20:39:07.685Z,12.10
2018-11-20T20:42:12.690Z,12.70
2018-11-20T20:45:28.098Z,13.27
2018-11-20T20:48:48.855Z,12.40
2018-11-20T20:51:53.626Z,11.83
2018-11-20T20:54:57.907Z,13.03
2018-11-20T20:57:50.586Z,12.10
2018-11-20T21:01:08.940Z,12.83
2018-11-20T21:04:13.971Z,11.50
2018-11-20T21:07:10.394Z,12.30
2018-11-20T21:10:28.499Z,13.13
2018-11-20T21:13:35.829Z,12.23
2018-11-20T21:16:40.534Z,12.67
2018-11-20T21:20:01.293Z,11.97
2018-11-20T21:23:16.444Z,12.97
2018-11-20T21:26:16.902Z,11.93
2018-11-20T21:29:32.450Z,12.27
2018-11-20T21:32:36.834Z,12.97
2018-11-20T21:35:46.844Z,11.77
2018-11-20T21:39:00.937Z,12.53
2018-11-20T21:42:14.476Z,13.00
2018-11-20T21:45:15.754Z,12.10
2018-11-20T21:48:13.265Z,14.00
2018-11-20T21:51:18.315Z,13.60
2018-11-20T21:54:14.216Z,14.30
2018-11-20T21:59:53.695Z,14.73
2018-11-20T22:03:10.861Z,14.87
2018-11-20T22:06:32.446Z,14.23
2018-11-20T22:09:44.088Z,14.60
2018-11-20T22:12:48.497Z,15.13
2018-11-20T22:16:12.464Z,15.33
2018-11-20T22:19:17.296Z,15.67
2018-11-20T22:22:22.067Z,16.47
2018-11-20T22:25:28.491Z,17.27
2018-11-20T22:28:33.497Z,16.37
2018-11-20T22:31:37.736Z,16.40
2018-11-20T22:34:42.397Z,16.57
2018-11-20T22:37:54.111Z,16.90
2018-11-20T22:40:58.383Z,16.50
2018-11-20T22:44:19.012Z,17.10
2018-11-20T22:47:40.529Z,16.43
2018-11-20T22:50:45.722Z,15.30
2018-11-20T22:53:57.130Z,17.07
2018-11-20T22:56:53.335Z,16.50
2018-11-20T23:00:02.061Z,17.13
2018-11-20T23:03:08.952Z,18.03
2018-11-20T23:06:12.688Z,17.60
2018-11-20T23:08:59.276Z,17.87
2018-11-20T23:11:46.531Z,17.57
2018-11-20T23:14:33.809Z,17.23
2018-11-20T23:17:20.356Z,17.73
2018-11-20T23:20:07.839Z,17.50
2018-11-20T23:22:54.580Z,17.90
2018-11-20T23:25:41.320Z,17.70
2018-11-20T23:28:27.895Z,18.07
2018-11-20T23:31:14.977Z,18.83
2018-11-20T23:34:02.049Z,17.10
2018-11-20T23:36:48.957Z,17.97
2018-11-20T23:39:35.804Z,17.00
2018-11-20T23:42:23.968Z,16.60
2018-11-20T23:45:11.484Z,18.43
2018-11-20T23:47:58.273Z,18.60
2018-11-20T23:50:45.587Z,18.87
2018-11-20T23:53:32.278Z,18.80
2018-11-20T23:56:18.899Z,18.47
2018-11-20T23:59:05.476Z,18.13
